Millenium Air

Millenium Air Since 1998



 METAR AND TAF INFORMATION
METAR FOR EYKA
ADDS - METARS form results

(0509 UTC 25 February 2021)
Data provider http://aviationweather.gov/metar/data/
 
METAR text: EYKA 250450Z 24008KT CAVOK 06/04 Q1024 R08/190095
Conditions at: EYKA (KAUNAS , LT) observed 0450 UTC 25 February 2021
Temperature: 6.0°C (43°F)
Dewpoint: 4.0°C (39°F) [RH = 87%]
Pressure (altimeter): 30.24 inches Hg (1024.0 mb)
Winds: from the WSW (240 degrees) at 9 MPH (8 knots; 4.1 m/s)
Visibility: 6 or more miles (10+ km)
Ceiling: ceiling and visibility are OK
Clouds: unknown
Weather: no significant weather observed at this time

METAR text: EYKA 250420Z 23006KT CAVOK 06/03 Q1024 R08/190095
Conditions at: EYKA (KAUNAS , LT) observed 0420 UTC 25 February 2021
Temperature: 6.0°C (43°F)
Dewpoint: 3.0°C (37°F) [RH = 81%]
Pressure (altimeter): 30.24 inches Hg (1024.0 mb)
Winds: from the SW (230 degrees) at 7 MPH (6 knots; 3.1 m/s)
Visibility: 6 or more miles (10+ km)
Ceiling: ceiling and visibility are OK
Clouds: unknown
Weather: no significant weather observed at this time

Forecast for: EYKA (KAUNAS , LT)
Text: TAF EYKA 250504Z 2506/2606 23010KT 6000 BKN010 OVC020
Forecast period: 0600 UTC 25 February 2021 to 0600 UTC 26 February 2021
Forecast type: FROM: standard forecast or significant change
Winds: from the SW (230 degrees) at 12 MPH (10 knots; 5.1 m/s)
Visibility: 4 miles (6 km)
Ceiling: 1000 feet AGL
Clouds: broken clouds at 1000 feet AGL
overcast cloud deck at 2000 feet AGL
Weather: no significant weather forecast for this period
Text: TEMPO 2506/2515 0800 FG BKN002
Forecast period: 0600 to 1500 UTC 25 February 2021
Forecast type: TEMPORARY: The following changes expected for less than half the time period
Visibility: 0.50 miles (0.80 km)
Ceiling: 200 feet AGL
Clouds: broken clouds at 200 feet AGL
Weather: FG  (fog)
Text: TEMPO 2515/2521 0800 FG VV002
Forecast period: 1500 to 2100 UTC 25 February 2021
Forecast type: TEMPORARY: The following changes expected for less than half the time period
Visibility: 0.50 miles (0.80 km)
Ceiling: indefinite ceiling with vertical visibility of 200 feet AGL
Clouds: obscured sky
Weather: FG  (fog)

 AIRPORT MAP

 RUNWAY INFORMATION
Runway 08 Runway length 10335 ft Runway width 148 ft
Runway elevation 236 ft Runway displaced threshold 1116 ft Runway heading 85
Runway 26 Runway length 10335 ft Runway width 148 ft
Runway elevation 256 ft Runway displaced threshold 788 ft Runway heading 265

 AIRPORT FREQUENCIES
Type APP Name APP Frequency 124.2 MHZ
Type MISC Name HANDLING Frequency 121.6 MHZ
Type TWR Name TWR Frequency 118.5 MHZ

 AIRPORT NEAR NAVIGATION AIDS
Type VOR-DME Name Kaunas Frequency 114400 KHZ
Type NDB Name Kaunas Frequency 343 KHZ